createdAt,value
2019-04-06T00:00:36.221Z,30.90
2019-04-06T00:01:12.692Z,30.82
2019-04-06T00:01:48.839Z,30.92
2019-04-06T00:02:25.326Z,30.65
2019-04-06T00:02:58.318Z,30.95
2019-04-06T00:03:31.332Z,31.33
2019-04-06T00:04:04.943Z,30.82
2019-04-06T00:04:37.963Z,30.92
2019-04-06T00:05:12.402Z,31.30
2019-04-06T00:05:45.549Z,30.92
2019-04-06T00:06:18.550Z,31.23
2019-04-06T00:06:51.740Z,30.40
2019-04-06T00:07:24.915Z,31.23
2019-04-06T00:07:57.902Z,31.42
2019-04-06T00:08:30.944Z,30.90
2019-04-06T00:09:05.888Z,31.12
2019-04-06T00:09:38.968Z,31.23
2019-04-06T00:10:12.350Z,31.42
2019-04-06T00:10:45.435Z,31.00
2019-04-06T00:11:18.546Z,31.35
2019-04-06T00:11:51.547Z,31.35
2019-04-06T00:12:24.630Z,31.17
2019-04-06T00:12:58.592Z,31.55
2019-04-06T00:13:31.560Z,31.97
2019-04-06T00:14:04.667Z,31.30
2019-04-06T00:14:37.964Z,31.20
2019-04-06T00:15:11.306Z,31.25
2019-04-06T00:15:44.304Z,30.95
2019-04-06T00:16:17.396Z,31.20
2019-04-06T00:16:50.391Z,31.82
2019-04-06T00:17:23.456Z,31.10
2019-04-06T00:17:56.454Z,31.48
2019-04-06T00:18:29.614Z,31.75
2019-04-06T00:19:03.632Z,31.35
2019-04-06T00:19:36.726Z,31.10
2019-04-06T00:20:09.940Z,31.57
2019-04-06T00:20:43.102Z,31.02
2019-04-06T00:21:16.132Z,31.57
2019-04-06T00:21:49.334Z,31.62
2019-04-06T00:22:22.198Z,31.10
2019-04-06T00:22:55.189Z,31.07
2019-04-06T00:23:28.147Z,31.82
2019-04-06T00:24:02.355Z,31.80
2019-04-06T00:24:35.494Z,32.08
2019-04-06T00:25:08.770Z,31.10
2019-04-06T00:25:44.847Z,31.20
2019-04-06T00:26:16.762Z,31.17
2019-04-06T00:26:49.779Z,31.20
2019-04-06T00:27:24.654Z,31.97
2019-04-06T00:27:57.994Z,31.55
2019-04-06T00:28:31.034Z,31.90
2019-04-06T00:29:04.050Z,31.62
2019-04-06T00:29:37.110Z,31.70
2019-04-06T00:30:10.552Z,31.60
2019-04-06T00:30:58.382Z,31.30
2019-04-06T00:31:48.115Z,31.87
2019-04-06T00:32:35.323Z,31.87
2019-04-06T00:33:10.474Z,31.68
2019-04-06T00:33:43.530Z,31.87
2019-04-06T00:34:16.754Z,31.30
2019-04-06T00:34:49.794Z,31.48
2019-04-06T00:35:22.666Z,32.00
2019-04-06T00:35:55.762Z,32.10
2019-04-06T00:36:29.798Z,32.10
2019-04-06T00:37:02.959Z,32.60
2019-04-06T00:37:36.830Z,31.85
2019-04-06T00:38:09.905Z,32.35
2019-04-06T00:38:42.960Z,31.50
2019-04-06T00:39:15.944Z,31.82
2019-04-06T00:39:49.091Z,31.93
2019-04-06T00:40:22.248Z,32.20
2019-04-06T00:40:55.694Z,31.75
2019-04-06T00:41:28.678Z,32.35
2019-04-06T00:42:01.950Z,31.65
2019-04-06T00:42:35.059Z,31.60
2019-04-06T00:43:08.187Z,32.65
2019-04-06T00:43:41.190Z,32.25
2019-04-06T00:44:16.717Z,31.87
2019-04-06T00:44:49.346Z,32.30
2019-04-06T00:45:22.346Z,32.03
2019-04-06T00:45:55.503Z,31.65
2019-04-06T00:46:28.880Z,31.73
2019-04-06T00:47:02.092Z,31.80
2019-04-06T00:47:35.198Z,32.03
2019-04-06T00:48:08.392Z,32.00
2019-04-06T00:48:41.943Z,32.48
2019-04-06T00:49:15.060Z,32.13
2019-04-06T00:49:48.318Z,31.90
2019-04-06T00:50:21.370Z,32.58
2019-04-06T00:50:54.365Z,32.13
2019-04-06T00:51:27.557Z,32.03
2019-04-06T00:52:00.586Z,32.83
2019-04-06T00:52:35.331Z,32.30
2019-04-06T00:53:08.496Z,32.00
2019-04-06T00:53:41.524Z,31.95
2019-04-06T00:54:16.214Z,32.08
2019-04-06T00:54:51.142Z,31.87
2019-04-06T00:55:25.953Z,31.80
2019-04-06T00:55:58.984Z,31.70
2019-04-06T00:56:32.051Z,32.03
2019-04-06T00:57:05.152Z,32.58
2019-04-06T00:57:38.136Z,32.13
2019-04-06T00:58:11.143Z,32.10
2019-04-06T00:58:44.504Z,32.80
2019-04-06T00:59:17.472Z,32.25
2019-04-06T00:59:50.484Z,32.35
2019-04-06T01:00:23.746Z,32.13
2019-04-06T01:00:56.823Z,32.85
2019-04-06T01:01:32.700Z,32.23
2019-04-06T01:02:06.530Z,32.08
2019-04-06T01:02:39.738Z,31.95
2019-04-06T01:03:12.704Z,32.65
2019-04-06T01:03:45.702Z,32.80
2019-04-06T01:04:18.812Z,32.65
2019-04-06T01:04:52.944Z,32.00
2019-04-06T01:05:26.148Z,31.97
2019-04-06T01:05:59.193Z,32.28
2019-04-06T01:06:32.333Z,32.48
2019-04-06T01:07:05.442Z,32.48
2019-04-06T01:07:38.418Z,32.63
2019-04-06T01:08:12.774Z,32.80
2019-04-06T01:08:45.774Z,32.83
2019-04-06T01:09:18.936Z,32.55
2019-04-06T01:09:52.142Z,32.45
2019-04-06T01:10:25.534Z,32.95
2019-04-06T01:10:58.480Z,32.28
2019-04-06T01:11:31.468Z,32.35
2019-04-06T01:12:04.674Z,32.40
2019-04-06T01:12:37.734Z,32.53
2019-04-06T01:13:10.906Z,32.73
2019-04-06T01:13:43.980Z,32.80
2019-04-06T01:14:17.040Z,32.63
2019-04-06T01:14:50.130Z,32.75
2019-04-06T01:15:23.200Z,32.75
2019-04-06T01:15:56.351Z,32.03
2019-04-06T01:16:31.002Z,32.00
2019-04-06T01:17:04.161Z,32.63
2019-04-06T01:17:37.388Z,32.55
2019-04-06T01:18:10.571Z,32.85
2019-04-06T01:18:43.555Z,32.73
2019-04-06T01:19:16.612Z,33.00
2019-04-06T01:19:51.302Z,32.83
2019-04-06T01:20:24.404Z,32.80
2019-04-06T01:20:57.640Z,32.73
2019-04-06T01:21:31.888Z,32.42
2019-04-06T01:22:04.990Z,31.75
2019-04-06T01:22:38.126Z,33.23
2019-04-06T01:23:11.264Z,33.23
2019-04-06T01:23:45.966Z,32.28
2019-04-06T01:24:19.052Z,33.02
2019-04-06T01:24:52.075Z,32.60
2019-04-06T01:25:25.156Z,33.28
2019-04-06T01:26:07.023Z,32.90
2019-04-06T01:26:33.282Z,33.02
2019-04-06T01:27:06.432Z,32.65
2019-04-06T01:27:39.605Z,32.65
2019-04-06T01:28:12.660Z,32.60
2019-04-06T01:28:45.702Z,33.13
2019-04-06T01:29:18.848Z,32.70
2019-04-06T01:29:51.829Z,32.28
2019-04-06T01:30:26.394Z,32.90
2019-04-06T01:30:59.340Z,32.80
2019-04-06T01:31:32.500Z,32.38
2019-04-06T01:32:05.550Z,33.00
2019-04-06T01:32:38.594Z,33.05
2019-04-06T01:33:11.748Z,33.08
2019-04-06T01:33:44.781Z,32.90
2019-04-06T01:34:17.743Z,33.02
2019-04-06T01:34:50.575Z,32.58
2019-04-06T01:35:23.446Z,33.10
2019-04-06T01:35:56.566Z,32.98
2019-04-06T01:36:29.750Z,33.83
2019-04-06T01:37:02.909Z,32.67
2019-04-06T01:37:35.912Z,33.35
2019-04-06T01:38:08.948Z,32.70
2019-04-06T01:38:42.312Z,33.20
2019-04-06T01:39:15.504Z,32.80
2019-04-06T01:39:48.476Z,33.23
2019-04-06T01:40:21.566Z,32.30
2019-04-06T01:40:54.538Z,32.73
2019-04-06T01:41:27.614Z,32.90
2019-04-06T01:42:00.539Z,33.00
2019-04-06T01:42:33.628Z,32.00
2019-04-06T01:43:06.697Z,33.08
2019-04-06T01:43:40.719Z,32.58
2019-04-06T01:44:13.735Z,33.00
2019-04-06T01:44:46.779Z,33.38
2019-04-06T01:45:19.772Z,33.15
2019-04-06T01:45:52.800Z,32.85
2019-04-06T01:46:25.753Z,33.92
2019-04-06T01:47:00.010Z,33.42
2019-04-06T01:47:33.072Z,33.10
2019-04-06T01:48:06.132Z,33.75
2019-04-06T01:48:39.236Z,33.45
2019-04-06T01:49:12.316Z,32.78
2019-04-06T01:49:45.369Z,33.23
2019-04-06T01:50:18.428Z,33.30
2019-04-06T01:50:51.272Z,33.08
2019-04-06T01:51:24.286Z,33.67
2019-04-06T01:51:57.341Z,32.80
2019-04-06T01:52:30.176Z,33.15
2019-04-06T01:53:03.244Z,33.60
2019-04-06T01:53:36.212Z,33.98
2019-04-06T01:54:09.222Z,33.88
2019-04-06T01:54:42.210Z,33.63
2019-04-06T01:55:15.301Z,32.55
2019-04-06T01:55:48.388Z,33.85
2019-04-06T01:56:21.369Z,33.58
2019-04-06T01:56:54.412Z,33.38
2019-04-06T01:57:27.465Z,32.95
2019-04-06T01:58:00.411Z,33.13
2019-04-06T01:58:33.383Z,33.33
2019-04-06T01:59:06.556Z,33.80
2019-04-06T01:59:39.630Z,34.10
2019-04-06T02:00:13.624Z,34.10
2019-04-06T02:01:04.059Z,33.65
2019-04-06T02:01:54.200Z,33.10
2019-04-06T02:02:29.913Z,33.18
2019-04-06T02:03:02.944Z,33.28
2019-04-06T02:03:36.293Z,33.80
2019-04-06T02:04:09.354Z,33.38
2019-04-06T02:04:42.322Z,33.28
2019-04-06T02:05:15.992Z,33.73
2019-04-06T02:05:49.121Z,33.33
2019-04-06T02:06:22.191Z,34.13
2019-04-06T02:06:55.346Z,33.83
2019-04-06T02:07:28.538Z,33.80
2019-04-06T02:08:01.622Z,34.08
2019-04-06T02:08:34.910Z,34.10
2019-04-06T02:09:09.141Z,33.05
2019-04-06T02:09:42.347Z,33.67
2019-04-06T02:10:15.533Z,34.15
2019-04-06T02:10:50.123Z,34.20
2019-04-06T02:11:24.285Z,34.10
2019-04-06T02:11:57.324Z,34.05
2019-04-06T02:12:30.203Z,33.50
2019-04-06T02:13:03.314Z,33.23
2019-04-06T02:13:36.366Z,33.20
2019-04-06T02:14:09.483Z,34.00
2019-04-06T02:14:42.712Z,33.75
2019-04-06T02:15:15.989Z,33.70
2019-04-06T02:15:49.036Z,33.73
2019-04-06T02:16:22.069Z,34.35
2019-04-06T02:16:55.176Z,34.25
2019-04-06T02:17:28.285Z,34.15
2019-04-06T02:18:01.470Z,34.15
2019-04-06T02:18:34.530Z,33.60
2019-04-06T02:19:07.475Z,33.75
2019-04-06T02:19:40.423Z,34.23
2019-04-06T02:20:13.717Z,33.23
2019-04-06T02:20:46.572Z,33.08
2019-04-06T02:21:19.537Z,34.35
2019-04-06T02:21:52.490Z,33.42
2019-04-06T02:22:25.919Z,34.00
2019-04-06T02:23:00.041Z,33.45
2019-04-06T02:23:33.877Z,33.80
2019-04-06T02:24:07.041Z,33.40
2019-04-06T02:24:40.093Z,34.10
2019-04-06T02:25:13.293Z,33.25
2019-04-06T02:25:46.223Z,34.38
2019-04-06T02:26:29.676Z,33.95
2019-04-06T02:26:54.059Z,34.25
2019-04-06T02:27:28.499Z,33.70
2019-04-06T02:28:01.449Z,33.90
2019-04-06T02:28:34.565Z,33.83
2019-04-06T02:29:07.601Z,34.35
2019-04-06T02:29:41.533Z,34.45
2019-04-06T02:30:39.923Z,35.00
2019-04-06T02:31:18.776Z,34.13
2019-04-06T02:32:06.040Z,34.48
2019-04-06T02:32:51.945Z,34.53
2019-04-06T02:33:31.357Z,34.98
2019-04-06T02:34:13.664Z,34.98
2019-04-06T02:35:15.655Z,34.90
2019-04-06T02:36:11.012Z,34.98
2019-04-06T02:36:51.876Z,34.60
2019-04-06T02:37:32.300Z,34.70
2019-04-06T02:38:28.709Z,35.05
2019-04-06T02:39:27.267Z,34.33
2019-04-06T02:40:16.048Z,35.10
2019-04-06T02:41:01.284Z,34.75
2019-04-06T02:41:45.842Z,35.38
2019-04-06T02:42:23.535Z,34.45
2019-04-06T02:43:03.872Z,34.83
2019-04-06T02:43:37.277Z,34.78
2019-04-06T02:44:10.280Z,34.55
2019-04-06T02:44:43.260Z,35.20
2019-04-06T02:45:16.401Z,35.63
2019-04-06T02:45:49.478Z,35.17
2019-04-06T02:46:22.461Z,34.65
2019-04-06T02:46:55.497Z,33.98
2019-04-06T02:47:28.453Z,35.10
2019-04-06T02:48:01.582Z,36.15
2019-04-06T02:48:34.779Z,35.73
2019-04-06T02:49:08.060Z,35.15
2019-04-06T02:49:41.191Z,35.90
2019-04-06T02:50:14.419Z,35.48
2019-04-06T02:50:47.470Z,34.70
2019-04-06T02:51:22.234Z,35.88
2019-04-06T02:51:55.292Z,35.73
2019-04-06T02:52:28.225Z,35.80
2019-04-06T02:53:01.295Z,35.35
2019-04-06T02:53:34.355Z,35.78
2019-04-06T02:54:07.630Z,35.35
2019-04-06T02:54:40.787Z,35.23
2019-04-06T02:55:14.198Z,35.20
2019-04-06T02:55:47.244Z,36.20
2019-04-06T02:56:20.282Z,35.60
2019-04-06T02:56:53.281Z,35.35
2019-04-06T02:57:26.372Z,35.52
2019-04-06T02:57:59.299Z,35.35
2019-04-06T02:58:32.441Z,35.52
2019-04-06T02:59:05.634Z,35.98
2019-04-06T02:59:38.749Z,35.65
2019-04-06T03:00:11.925Z,35.70
2019-04-06T03:00:44.965Z,35.88
2019-04-06T03:01:18.101Z,35.10
2019-04-06T03:01:51.184Z,36.28
2019-04-06T03:02:24.226Z,36.45
2019-04-06T03:02:57.411Z,35.40
2019-04-06T03:03:30.463Z,36.50
2019-04-06T03:04:03.521Z,35.88
2019-04-06T03:04:36.560Z,35.92
2019-04-06T03:05:09.899Z,35.83
2019-04-06T03:05:43.005Z,36.33
2019-04-06T03:06:16.127Z,35.63
2019-04-06T03:06:49.175Z,36.42
2019-04-06T03:07:22.226Z,36.23
2019-04-06T03:07:55.276Z,36.40
2019-04-06T03:08:28.383Z,36.15
2019-04-06T03:09:01.470Z,35.70
2019-04-06T03:09:35.796Z,35.63
2019-04-06T03:10:09.163Z,36.75
2019-04-06T03:10:42.254Z,36.05
2019-04-06T03:11:15.247Z,35.65
2019-04-06T03:11:48.330Z,36.23
2019-04-06T03:12:21.414Z,36.45
2019-04-06T03:12:54.717Z,35.83
2019-04-06T03:13:27.798Z,35.85
2019-04-06T03:14:01.090Z,36.53
2019-04-06T03:14:34.213Z,36.80
2019-04-06T03:15:07.597Z,35.52
2019-04-06T03:15:40.447Z,36.30
2019-04-06T03:16:13.490Z,36.60
2019-04-06T03:16:46.350Z,35.85
2019-04-06T03:17:19.351Z,37.10
2019-04-06T03:17:52.410Z,36.50
2019-04-06T03:18:25.475Z,36.70
2019-04-06T03:18:58.487Z,35.33
2019-04-06T03:19:31.410Z,36.85
2019-04-06T03:20:04.662Z,36.00
2019-04-06T03:20:37.704Z,35.98
2019-04-06T03:21:11.329Z,35.80
2019-04-06T03:21:44.239Z,36.40
2019-04-06T03:22:17.293Z,35.90
2019-04-06T03:22:50.237Z,36.60
2019-04-06T03:23:24.865Z,36.58
2019-04-06T03:23:58.166Z,36.75
2019-04-06T03:24:31.231Z,35.73
2019-04-06T03:25:05.653Z,36.35
2019-04-06T03:25:38.859Z,37.48
2019-04-06T03:26:12.295Z,36.58
2019-04-06T03:26:59.432Z,37.05
2019-04-06T03:27:21.988Z,36.88
2019-04-06T03:27:55.094Z,36.98
2019-04-06T03:28:28.656Z,36.30
2019-04-06T03:29:01.940Z,36.35
2019-04-06T03:29:34.915Z,36.00
2019-04-06T03:30:08.625Z,36.63
2019-04-06T03:30:41.713Z,36.40
2019-04-06T03:31:14.855Z,35.00
2019-04-06T03:31:49.196Z,36.65
2019-04-06T03:32:22.747Z,36.93
2019-04-06T03:32:55.833Z,37.30
2019-04-06T03:33:29.068Z,36.75
2019-04-06T03:34:02.253Z,36.93
2019-04-06T03:34:35.311Z,34.73
2019-04-06T03:35:09.452Z,36.35
2019-04-06T03:35:46.768Z,36.68
2019-04-06T03:36:17.448Z,36.03
2019-04-06T03:36:50.665Z,34.27
2019-04-06T03:37:23.736Z,34.95
2019-04-06T03:37:58.250Z,35.45
2019-04-06T03:38:31.526Z,35.68
2019-04-06T03:39:06.406Z,36.35
2019-04-06T03:39:39.613Z,35.50
2019-04-06T03:40:13.202Z,35.40
2019-04-06T03:40:46.176Z,36.13
2019-04-06T03:41:19.249Z,35.45
2019-04-06T03:41:53.956Z,34.73
2019-04-06T03:42:27.066Z,35.08
2019-04-06T03:43:01.753Z,34.70
2019-04-06T03:43:34.811Z,35.33
2019-04-06T03:44:07.899Z,36.28
2019-04-06T03:44:41.196Z,36.48
2019-04-06T03:45:14.541Z,35.90
2019-04-06T03:45:47.640Z,35.80
2019-04-06T03:46:20.755Z,36.35
2019-04-06T03:46:53.839Z,36.42
2019-04-06T03:47:26.907Z,36.23
2019-04-06T03:47:59.810Z,34.10
2019-04-06T03:48:32.897Z,36.08
2019-04-06T03:49:05.972Z,35.95
2019-04-06T03:49:38.954Z,35.35
2019-04-06T03:50:12.049Z,35.95
2019-04-06T03:50:45.050Z,36.68
2019-04-06T03:51:18.061Z,35.60
2019-04-06T03:51:51.139Z,35.85
2019-04-06T03:52:24.101Z,35.60
2019-04-06T03:52:57.288Z,35.70
2019-04-06T03:53:30.310Z,35.95
2019-04-06T03:54:03.353Z,35.85
2019-04-06T03:54:36.304Z,36.40
2019-04-06T03:55:09.187Z,36.08
2019-04-06T03:55:42.099Z,35.58
2019-04-06T03:56:15.099Z,35.95
2019-04-06T03:56:47.962Z,36.33
2019-04-06T03:57:21.046Z,36.42
2019-04-06T03:57:54.121Z,35.88
2019-04-06T03:58:27.160Z,35.63
2019-04-06T03:59:00.223Z,35.73
2019-04-06T03:59:33.094Z,36.13
2019-04-06T04:00:07.515Z,35.25
2019-04-06T04:00:40.352Z,36.13
2019-04-06T04:01:13.352Z,35.88
2019-04-06T04:01:46.449Z,36.15
2019-04-06T04:02:19.424Z,35.58
2019-04-06T04:02:52.586Z,36.10
2019-04-06T04:03:25.920Z,35.63
2019-04-06T04:03:59.117Z,35.78
2019-04-06T04:04:32.211Z,36.45
2019-04-06T04:05:06.328Z,36.00
2019-04-06T04:05:39.354Z,36.10
2019-04-06T04:06:12.660Z,36.53
2019-04-06T04:06:45.862Z,36.17
2019-04-06T04:07:19.164Z,36.48
2019-04-06T04:07:52.006Z,35.05
2019-04-06T04:08:24.928Z,34.20
2019-04-06T04:08:57.879Z,36.53
2019-04-06T04:09:31.930Z,37.13
2019-04-06T04:10:06.043Z,37.13
2019-04-06T04:10:41.136Z,36.93
2019-04-06T04:11:14.248Z,37.28
2019-04-06T04:11:47.223Z,37.33
2019-04-06T04:12:20.082Z,36.17
2019-04-06T04:12:52.949Z,36.25
2019-04-06T04:13:25.924Z,36.75
2019-04-06T04:13:58.850Z,36.68
2019-04-06T04:14:31.888Z,37.33
2019-04-06T04:15:05.926Z,36.35
2019-04-06T04:15:39.227Z,36.33
2019-04-06T04:16:12.342Z,37.25
2019-04-06T04:16:45.550Z,35.92
2019-04-06T04:17:18.645Z,37.00
2019-04-06T04:17:51.591Z,34.88
2019-04-06T04:18:24.843Z,35.45
2019-04-06T04:18:57.799Z,34.53
2019-04-06T04:19:32.408Z,35.70
2019-04-06T04:20:05.788Z,35.50
2019-04-06T04:20:38.779Z,35.83
2019-04-06T04:21:12.709Z,35.70
2019-04-06T04:21:45.795Z,36.17
2019-04-06T04:22:18.855Z,36.70
2019-04-06T04:22:51.873Z,35.88
2019-04-06T04:23:24.732Z,36.03
2019-04-06T04:23:57.714Z,36.75
2019-04-06T04:24:30.854Z,36.10
2019-04-06T04:25:04.499Z,35.38
2019-04-06T04:25:37.440Z,36.53
2019-04-06T04:26:10.875Z,36.48
2019-04-06T04:26:43.880Z,35.00
2019-04-06T04:27:27.638Z,36.30
2019-04-06T04:27:51.781Z,36.15
2019-04-06T04:28:24.663Z,36.80
2019-04-06T04:28:57.619Z,36.48
2019-04-06T04:29:30.535Z,36.53
2019-04-06T04:30:04.137Z,34.15
2019-04-06T04:30:36.935Z,36.13
2019-04-06T04:31:11.188Z,36.40
2019-04-06T04:31:45.856Z,36.13
2019-04-06T04:32:18.825Z,35.92
2019-04-06T04:32:51.765Z,35.25
2019-04-06T04:33:24.769Z,35.52
2019-04-06T04:33:57.655Z,35.55
2019-04-06T04:34:30.743Z,36.58
2019-04-06T04:35:04.250Z,35.68
2019-04-06T04:35:37.319Z,36.80
2019-04-06T04:36:10.479Z,36.35
2019-04-06T04:36:43.435Z,35.92
2019-04-06T04:37:16.624Z,36.28
2019-04-06T04:37:49.657Z,37.28
2019-04-06T04:38:22.709Z,37.17
2019-04-06T04:38:55.868Z,35.25
2019-04-06T04:39:28.850Z,36.28
2019-04-06T04:40:01.996Z,37.20
2019-04-06T04:40:35.092Z,36.35
2019-04-06T04:41:08.090Z,37.45
2019-04-06T04:41:41.068Z,37.35
2019-04-06T04:42:14.060Z,37.70
2019-04-06T04:42:47.046Z,37.73
2019-04-06T04:43:20.238Z,37.60
2019-04-06T04:43:53.323Z,37.73
2019-04-06T04:44:26.287Z,36.90
2019-04-06T04:44:59.278Z,38.10
2019-04-06T04:45:32.356Z,37.17
2019-04-06T04:46:05.492Z,36.58
2019-04-06T04:46:39.617Z,38.10
2019-04-06T04:47:12.790Z,37.58
2019-04-06T04:47:46.055Z,37.55
2019-04-06T04:48:19.295Z,39.03
2019-04-06T04:48:52.456Z,39.05
2019-04-06T04:49:26.520Z,37.17
2019-04-06T04:49:59.710Z,38.78
2019-04-06T04:50:32.986Z,38.28
2019-04-06T04:51:05.962Z,37.93
2019-04-06T04:51:38.982Z,39.03
2019-04-06T04:52:11.983Z,38.55
2019-04-06T04:52:45.112Z,38.90
2019-04-06T04:53:19.953Z,39.08
2019-04-06T04:53:53.016Z,39.08
2019-04-06T04:54:26.108Z,38.85
2019-04-06T04:54:59.206Z,39.33
2019-04-06T04:55:32.369Z,39.15
2019-04-06T04:56:05.412Z,38.67
2019-04-06T04:56:38.354Z,38.15
2019-04-06T04:57:11.365Z,38.65
2019-04-06T04:57:45.377Z,38.67
2019-04-06T04:58:18.976Z,39.33
2019-04-06T04:58:51.834Z,38.63
2019-04-06T04:59:24.989Z,39.40
2019-04-06T04:59:58.006Z,39.73
2019-04-06T05:00:32.364Z,38.40
2019-04-06T05:01:05.364Z,39.00
2019-04-06T05:01:38.410Z,39.38
2019-04-06T05:02:11.236Z,38.33
2019-04-06T05:02:44.249Z,38.92
2019-04-06T05:03:17.276Z,38.92
2019-04-06T05:03:51.013Z,38.85
2019-04-06T05:04:23.922Z,39.30
2019-04-06T05:04:57.071Z,39.42
2019-04-06T05:05:30.288Z,39.55
2019-04-06T05:06:04.444Z,40.05
2019-04-06T05:06:37.436Z,39.00
2019-04-06T05:07:10.564Z,40.05
2019-04-06T05:07:43.474Z,40.63
2019-04-06T05:08:16.448Z,39.60
2019-04-06T05:08:49.572Z,40.52
2019-04-06T05:09:22.518Z,38.88
2019-04-06T05:09:55.620Z,39.67
2019-04-06T05:10:28.667Z,40.80
2019-04-06T05:11:01.579Z,41.08
2019-04-06T05:11:36.159Z,40.33
2019-04-06T05:12:09.163Z,39.38
2019-04-06T05:12:42.197Z,40.90
2019-04-06T05:13:15.221Z,40.98
2019-04-06T05:13:48.140Z,40.92
2019-04-06T05:14:56.826Z,40.95
2019-04-06T05:16:12.515Z,41.25
2019-04-06T05:16:45.511Z,41.20
2019-04-06T05:17:18.562Z,41.13
2019-04-06T05:17:51.619Z,42.03
2019-04-06T05:18:26.218Z,40.48
2019-04-06T05:18:59.231Z,40.63
2019-04-06T05:19:32.257Z,41.08
2019-04-06T05:20:07.648Z,42.53
2019-04-06T05:20:40.578Z,42.85
2019-04-06T05:21:13.854Z,42.58
2019-04-06T05:21:46.903Z,41.88
2019-04-06T05:22:19.922Z,42.08
2019-04-06T05:22:53.055Z,42.95
2019-04-06T05:23:26.029Z,42.30
2019-04-06T05:23:59.193Z,42.08
2019-04-06T05:24:32.244Z,41.65
2019-04-06T05:25:09.133Z,42.35
2019-04-06T05:25:42.137Z,42.27
2019-04-06T05:26:15.093Z,42.90
2019-04-06T05:26:48.241Z,43.25
2019-04-06T05:27:21.561Z,42.35
2019-04-06T05:27:54.498Z,42.62
2019-04-06T05:28:28.976Z,43.15
2019-04-06T05:29:01.884Z,43.08
2019-04-06T05:29:35.019Z,41.28
2019-04-06T05:30:08.764Z,41.68
2019-04-06T05:30:41.822Z,41.20
2019-04-06T05:31:14.746Z,40.88
2019-04-06T05:31:47.605Z,38.73
2019-04-06T05:32:20.766Z,41.88
2019-04-06T05:32:54.906Z,41.55
2019-04-06T05:33:28.032Z,42.13
2019-04-06T05:34:01.092Z,42.67
2019-04-06T05:34:34.014Z,41.65
2019-04-06T05:35:06.946Z,41.77
2019-04-06T05:35:39.872Z,42.55
2019-04-06T05:36:14.452Z,41.65
2019-04-06T05:36:47.358Z,43.25
2019-04-06T05:37:20.563Z,42.03
2019-04-06T05:37:53.563Z,43.13
2019-04-06T05:38:28.160Z,43.00
2019-04-06T05:39:01.071Z,41.28
2019-04-06T05:39:34.119Z,41.13
2019-04-06T05:40:07.256Z,40.00
2019-04-06T05:40:41.812Z,42.75
2019-04-06T05:41:14.637Z,43.58
2019-04-06T05:41:50.357Z,41.80
2019-04-06T05:42:23.066Z,42.17
2019-04-06T05:42:56.203Z,42.85
2019-04-06T05:43:29.097Z,41.95
2019-04-06T05:44:02.133Z,43.33
2019-04-06T05:44:35.296Z,42.78
2019-04-06T05:45:08.728Z,42.23
2019-04-06T05:45:41.624Z,42.98
2019-04-06T05:46:14.712Z,43.50
2019-04-06T05:46:47.714Z,43.38
2019-04-06T05:47:20.812Z,43.17
2019-04-06T05:47:53.850Z,43.00
2019-04-06T05:48:26.996Z,42.78
2019-04-06T05:49:00.016Z,43.02
2019-04-06T05:49:33.070Z,43.02
2019-04-06T05:50:06.639Z,42.23
2019-04-06T05:50:39.698Z,41.85
2019-04-06T05:51:12.715Z,43.75
2019-04-06T05:51:45.674Z,42.95
2019-04-06T05:52:18.602Z,43.85
2019-04-06T05:52:51.654Z,43.92
2019-04-06T05:53:24.718Z,42.25
2019-04-06T05:53:57.774Z,41.75
2019-04-06T05:54:30.888Z,42.93
2019-04-06T05:55:04.520Z,42.90
2019-04-06T05:55:37.638Z,42.05
2019-04-06T05:56:10.636Z,42.23
2019-04-06T05:56:43.709Z,43.25
2019-04-06T05:57:17.715Z,43.83
2019-04-06T05:57:57.747Z,42.25
2019-04-06T05:58:25.556Z,42.85
2019-04-06T05:58:58.536Z,43.85
2019-04-06T05:59:31.756Z,43.48
2019-04-06T06:00:09.727Z,44.25
2019-04-06T06:00:41.561Z,44.30
2019-04-06T06:01:14.464Z,44.08
2019-04-06T06:01:48.937Z,43.10
2019-04-06T06:02:22.420Z,42.05
2019-04-06T06:02:55.457Z,43.08
2019-04-06T06:03:29.265Z,42.90
2019-04-06T06:04:02.212Z,43.00
2019-04-06T06:04:35.285Z,42.83
2019-04-06T06:05:08.559Z,43.98
2019-04-06T06:05:43.460Z,44.15
2019-04-06T06:06:18.155Z,43.33
2019-04-06T06:06:51.307Z,42.60
2019-04-06T06:07:24.413Z,41.90
2019-04-06T06:07:57.536Z,43.37
2019-04-06T06:08:30.641Z,43.40
2019-04-06T06:09:05.841Z,43.13
2019-04-06T06:09:39.274Z,43.63
2019-04-06T06:10:12.380Z,43.40
2019-04-06T06:10:45.360Z,43.70
2019-04-06T06:11:18.274Z,42.25
2019-04-06T06:11:51.386Z,42.93
2019-04-06T06:12:24.693Z,41.58
2019-04-06T06:12:58.102Z,43.35
2019-04-06T06:13:33.409Z,44.18
2019-04-06T06:14:06.635Z,43.28
2019-04-06T06:14:39.754Z,42.83
2019-04-06T06:15:13.206Z,38.58
2019-04-06T06:15:46.286Z,42.30
2019-04-06T06:16:19.811Z,43.20
2019-04-06T06:16:52.827Z,42.95
2019-04-06T06:17:25.928Z,43.20
2019-04-06T06:17:59.102Z,42.88
2019-04-06T06:18:33.854Z,42.70
2019-04-06T06:19:06.879Z,43.42
2019-04-06T06:19:40.044Z,42.23
2019-04-06T06:20:13.186Z,43.30
2019-04-06T06:20:48.242Z,43.00
2019-04-06T06:21:21.140Z,43.98
2019-04-06T06:21:54.051Z,44.05
2019-04-06T06:22:27.991Z,42.85
2019-04-06T06:23:01.762Z,42.33
2019-04-06T06:23:34.557Z,40.48
2019-04-06T06:24:07.671Z,42.45
2019-04-06T06:24:40.692Z,43.25
2019-04-06T06:25:14.133Z,43.25
2019-04-06T06:25:47.052Z,44.67
2019-04-06T06:26:20.327Z,43.48
2019-04-06T06:26:53.541Z,42.00
2019-04-06T06:27:27.307Z,41.83
2019-04-06T06:28:00.435Z,42.08
2019-04-06T06:28:34.882Z,43.95
2019-04-06T06:29:07.876Z,43.08
2019-04-06T06:29:40.892Z,43.38
2019-04-06T06:30:14.704Z,43.87
2019-04-06T06:30:48.003Z,44.05
2019-04-06T06:31:21.030Z,43.60
2019-04-06T06:31:55.102Z,43.42
2019-04-06T06:32:28.172Z,44.42
2019-04-06T06:33:01.339Z,43.42
2019-04-06T06:33:35.177Z,44.35
2019-04-06T06:34:08.396Z,42.83
2019-04-06T06:34:41.642Z,44.50
2019-04-06T06:35:14.713Z,42.35
2019-04-06T06:35:47.650Z,42.75
2019-04-06T06:36:21.127Z,44.13
2019-04-06T06:36:54.186Z,43.92
2019-04-06T06:37:27.350Z,44.42
2019-04-06T06:38:02.083Z,44.00
2019-04-06T06:38:35.278Z,43.68
2019-04-06T06:39:09.711Z,43.95
2019-04-06T06:39:42.589Z,43.83
2019-04-06T06:40:15.736Z,43.70
2019-04-06T06:40:48.710Z,43.58
2019-04-06T06:41:22.004Z,44.18
2019-04-06T06:41:54.909Z,43.95
2019-04-06T06:42:27.978Z,44.77
2019-04-06T06:43:01.054Z,43.08
2019-04-06T06:43:34.308Z,43.90
2019-04-06T06:44:07.300Z,44.08
2019-04-06T06:44:40.412Z,44.00
2019-04-06T06:45:13.638Z,44.30
2019-04-06T06:45:47.441Z,43.40
2019-04-06T06:46:20.511Z,43.10
2019-04-06T06:46:53.662Z,43.80
2019-04-06T06:47:26.842Z,44.75
2019-04-06T06:48:01.122Z,44.63
2019-04-06T06:48:35.322Z,44.15
2019-04-06T06:49:08.411Z,43.65
2019-04-06T06:49:41.506Z,43.83
2019-04-06T06:50:16.471Z,43.92
2019-04-06T06:50:49.587Z,45.17
2019-04-06T06:51:22.610Z,44.03
2019-04-06T06:51:55.974Z,41.92
2019-04-06T06:52:29.201Z,44.03
2019-04-06T06:53:02.427Z,44.50
2019-04-06T06:53:35.597Z,44.50
2019-04-06T06:54:08.780Z,45.08
2019-04-06T06:54:41.931Z,44.40
2019-04-06T06:55:15.156Z,46.20
2019-04-06T06:55:48.323Z,44.77
2019-04-06T06:56:21.446Z,44.75
2019-04-06T06:56:54.501Z,44.60
2019-04-06T06:57:27.567Z,44.58
2019-04-06T06:58:00.662Z,44.45
2019-04-06T06:58:33.765Z,44.97
2019-04-06T06:59:06.755Z,44.73
2019-04-06T06:59:39.992Z,44.85
2019-04-06T07:00:13.475Z,42.23
2019-04-06T07:00:46.663Z,45.05
2019-04-06T07:01:19.816Z,44.42
2019-04-06T07:01:52.869Z,44.27
2019-04-06T07:02:26.175Z,43.85
2019-04-06T07:02:59.260Z,43.80
2019-04-06T07:03:32.369Z,44.23
2019-04-06T07:04:05.808Z,43.42
2019-04-06T07:04:38.792Z,43.10
2019-04-06T07:05:11.855Z,44.03
2019-04-06T07:05:45.223Z,42.08
2019-04-06T07:06:18.331Z,43.73
2019-04-06T07:06:51.758Z,44.70
2019-04-06T07:07:24.991Z,44.67
2019-04-06T07:07:58.172Z,46.13
2019-04-06T07:08:31.231Z,43.45
2019-04-06T07:09:06.654Z,43.17
2019-04-06T07:09:39.907Z,45.43
2019-04-06T07:10:13.620Z,46.08
2019-04-06T07:10:46.711Z,45.28
2019-04-06T07:11:19.921Z,43.02
2019-04-06T07:11:52.967Z,45.28
2019-04-06T07:12:26.130Z,44.15
2019-04-06T07:12:59.094Z,45.15
2019-04-06T07:13:32.083Z,44.90
2019-04-06T07:14:05.221Z,45.60
2019-04-06T07:14:38.269Z,44.50
2019-04-06T07:15:11.636Z,45.80
2019-04-06T07:15:44.748Z,45.90